createdAt,value
2022-11-05T00:00:02.748Z,3.20
2022-11-05T00:01:02.721Z,2.70
2022-11-05T00:02:02.791Z,3.60
2022-11-05T00:03:02.747Z,3.30
2022-11-05T00:04:02.768Z,2.50
2022-11-05T00:05:02.694Z,4.20
2022-11-05T00:06:02.683Z,2.70
2022-11-05T00:07:02.659Z,2.80
2022-11-05T00:08:02.666Z,3.30
2022-11-05T00:09:02.641Z,2.50
2022-11-05T00:10:02.617Z,3.30
2022-11-05T00:11:02.639Z,3.20
2022-11-05T00:12:02.592Z,2.30
2022-11-05T00:13:02.568Z,3.60
2022-11-05T00:14:02.564Z,3.00
2022-11-05T00:15:02.571Z,3.70
2022-11-05T00:16:02.531Z,3.30
2022-11-05T00:17:02.558Z,5.50
2022-11-05T00:18:02.500Z,3.50
2022-11-05T00:19:02.511Z,4.20
2022-11-05T00:20:02.492Z,3.50
2022-11-05T00:21:02.465Z,3.90
2022-11-05T00:22:02.472Z,4.90
2022-11-05T00:23:02.441Z,3.60
2022-11-05T00:24:02.423Z,3.40
2022-11-05T00:25:02.416Z,4.00
2022-11-05T00:26:02.459Z,5.90
2022-11-05T00:27:02.409Z,5.80
2022-11-05T00:28:02.378Z,6.30
2022-11-05T00:29:02.383Z,4.90
2022-11-05T00:30:02.343Z,5.60
2022-11-05T00:31:02.348Z,5.00
2022-11-05T00:32:02.306Z,4.40
2022-11-05T00:33:02.319Z,5.70
2022-11-05T00:34:02.425Z,5.10
2022-11-05T00:35:02.296Z,5.80
2022-11-05T00:36:02.254Z,7.40
2022-11-05T00:37:02.250Z,6.70
2022-11-05T00:38:02.260Z,7.30
2022-11-05T00:39:02.211Z,5.90
2022-11-05T00:40:02.202Z,6.30
2022-11-05T00:41:02.196Z,8.40
2022-11-05T00:42:02.175Z,6.30
2022-11-05T00:43:02.193Z,5.40
2022-11-05T00:44:02.146Z,6.00
2022-11-05T00:45:02.283Z,6.30
2022-11-05T00:46:02.125Z,6.60
2022-11-05T00:47:02.123Z,6.00
2022-11-05T00:48:02.101Z,7.00
2022-11-05T00:49:02.105Z,7.10
2022-11-05T00:50:02.068Z,8.10
2022-11-05T00:51:02.089Z,6.70
2022-11-05T00:52:02.040Z,6.60
2022-11-05T00:53:02.029Z,6.00
2022-11-05T00:54:02.013Z,7.60
2022-11-05T00:55:02.036Z,8.50
2022-11-05T00:56:02.011Z,8.80
2022-11-05T00:57:04.596Z,8.20
2022-11-05T00:58:01.976Z,8.80
2022-11-05T00:59:01.954Z,7.80
2022-11-05T01:00:01.943Z,8.40
2022-11-05T01:01:01.938Z,9.60
2022-11-05T01:02:02.039Z,7.50
2022-11-05T01:03:01.904Z,9.70
2022-11-05T01:04:01.904Z,10.30
2022-11-05T01:05:01.873Z,9.20
2022-11-05T01:06:01.879Z,8.10
2022-11-05T01:07:01.848Z,9.30
2022-11-05T01:08:01.835Z,9.30
2022-11-05T01:09:01.823Z,9.40
2022-11-05T01:10:01.810Z,8.40
2022-11-05T01:11:01.814Z,8.60
2022-11-05T01:12:01.830Z,9.10
2022-11-05T01:13:01.780Z,9.40
2022-11-05T01:14:01.792Z,8.20
2022-11-05T01:15:01.747Z,10.70
2022-11-05T01:16:01.746Z,9.20
2022-11-05T01:17:01.783Z,9.30
2022-11-05T01:18:01.703Z,8.60
2022-11-05T01:19:01.696Z,9.90
2022-11-05T01:20:01.675Z,9.30
2022-11-05T01:21:01.675Z,9.20
2022-11-05T01:22:01.678Z,8.90
2022-11-05T01:23:01.632Z,11.30
2022-11-05T01:24:01.633Z,11.30
2022-11-05T01:25:01.607Z,10.20
2022-11-05T01:26:01.600Z,9.60
2022-11-05T01:27:01.593Z,14.40
2022-11-05T01:28:01.585Z,11.10
2022-11-05T01:29:01.635Z,10.10
2022-11-05T01:30:01.535Z,9.00
2022-11-05T01:31:01.545Z,10.90
2022-11-05T01:32:01.570Z,10.30
2022-11-05T01:33:01.498Z,10.90
2022-11-05T01:34:01.535Z,10.40
2022-11-05T01:35:01.467Z,11.80
2022-11-05T01:36:01.470Z,10.60
2022-11-05T01:37:01.442Z,11.00
2022-11-05T01:38:01.430Z,11.90
2022-11-05T01:39:01.438Z,10.10
2022-11-05T01:40:01.410Z,14.60
2022-11-05T01:41:01.398Z,14.20
2022-11-05T01:42:01.370Z,10.80
2022-11-05T01:43:01.377Z,13.50
2022-11-05T01:44:01.346Z,13.80
2022-11-05T01:45:01.334Z,15.00
2022-11-05T01:46:01.324Z,13.00
2022-11-05T01:47:01.303Z,14.10
2022-11-05T01:48:01.323Z,12.20
2022-11-05T01:49:03.390Z,15.20
2022-11-05T01:50:01.273Z,10.70
2022-11-05T01:51:01.255Z,11.50
2022-11-05T01:52:01.258Z,14.20
2022-11-05T01:53:01.218Z,12.90
2022-11-05T01:54:01.222Z,11.70
2022-11-05T01:55:01.218Z,14.40
2022-11-05T01:56:01.208Z,11.60
2022-11-05T01:57:01.168Z,12.40
2022-11-05T01:58:01.160Z,12.60
2022-11-05T01:59:01.162Z,15.40
2022-11-05T02:00:01.155Z,13.60
2022-11-05T02:01:01.141Z,15.80
2022-11-05T02:02:01.298Z,13.90
2022-11-05T02:03:01.188Z,12.20
2022-11-05T02:04:01.076Z,16.10
2022-11-05T02:05:01.066Z,14.20
2022-11-05T02:06:01.064Z,13.90
2022-11-05T02:07:01.069Z,16.10
2022-11-05T02:08:01.039Z,14.10
2022-11-05T02:09:01.003Z,14.00
2022-11-05T02:10:01.003Z,13.90
2022-11-05T02:11:01.015Z,13.40
2022-11-05T02:12:00.965Z,17.20
2022-11-05T02:13:00.982Z,13.90
2022-11-05T02:14:00.952Z,15.00
2022-11-05T02:15:00.938Z,15.00
2022-11-05T02:16:00.918Z,15.60
2022-11-05T02:17:00.920Z,15.80
2022-11-05T02:18:00.918Z,14.90
2022-11-05T02:19:00.895Z,15.60
2022-11-05T02:20:00.864Z,13.70
2022-11-05T02:21:00.845Z,15.10
2022-11-05T02:22:00.834Z,14.40
2022-11-05T02:23:00.877Z,14.30
2022-11-05T02:24:00.811Z,16.20
2022-11-05T02:25:00.798Z,17.40
2022-11-05T02:26:00.792Z,30.80
2022-11-05T02:27:00.787Z,14.80
2022-11-05T02:28:00.781Z,14.30
2022-11-05T02:29:00.748Z,12.90
2022-11-05T02:30:00.719Z,15.50
2022-11-05T02:31:00.753Z,14.50
2022-11-05T02:32:00.741Z,17.20
2022-11-05T02:33:00.688Z,17.20
2022-11-05T02:34:00.684Z,15.30
2022-11-05T02:35:00.654Z,15.30
2022-11-05T02:36:00.670Z,13.60
2022-11-05T02:37:00.662Z,13.90
2022-11-05T02:38:00.630Z,15.10
2022-11-05T02:39:00.601Z,15.10
2022-11-05T02:40:00.603Z,15.90
2022-11-05T02:41:00.568Z,14.80
2022-11-05T02:42:04.785Z,14.40
2022-11-05T02:43:00.552Z,14.40
2022-11-05T02:44:00.600Z,16.30
2022-11-05T02:45:00.535Z,13.90
2022-11-05T02:46:00.538Z,13.60
2022-11-05T02:47:00.507Z,15.90
2022-11-05T02:48:00.509Z,14.80
2022-11-05T02:49:00.479Z,15.70
2022-11-05T02:50:00.480Z,16.50
2022-11-05T02:51:00.488Z,15.90
2022-11-05T02:52:00.439Z,16.30
2022-11-05T02:53:00.432Z,16.20
2022-11-05T02:54:00.410Z,13.20
2022-11-05T02:55:00.429Z,15.80
2022-11-05T02:56:00.385Z,15.60
2022-11-05T02:57:00.363Z,18.90
2022-11-05T02:58:00.353Z,14.70
2022-11-05T02:59:00.348Z,15.60
2022-11-05T03:00:00.364Z,16.30
2022-11-05T03:01:00.325Z,16.50
2022-11-05T03:02:00.426Z,15.40
2022-11-05T03:03:00.380Z,14.00
2022-11-05T03:04:00.300Z,14.40
2022-11-05T03:05:00.253Z,16.20
2022-11-05T03:06:00.256Z,18.00
2022-11-05T03:07:00.253Z,16.60
2022-11-05T03:08:00.221Z,15.90
2022-11-05T03:09:00.219Z,14.80
2022-11-05T03:10:00.199Z,15.30
2022-11-05T03:11:00.188Z,15.00
2022-11-05T03:12:00.195Z,13.80
2022-11-05T03:13:00.158Z,18.40
2022-11-05T03:14:00.136Z,14.80
2022-11-05T03:15:00.149Z,17.90
2022-11-05T03:16:00.116Z,17.30
2022-11-05T03:17:00.111Z,15.70
2022-11-05T03:18:00.106Z,16.50
2022-11-05T03:19:00.065Z,18.70
2022-11-05T03:20:00.076Z,14.10
2022-11-05T03:21:00.045Z,18.70
2022-11-05T03:22:00.034Z,15.60
2022-11-05T03:23:00.026Z,15.90
2022-11-05T03:24:00.009Z,18.00
2022-11-05T03:25:00.005Z,14.70
2022-11-05T03:25:59.970Z,15.60
2022-11-05T03:26:59.983Z,15.00
2022-11-05T03:27:59.965Z,14.30
2022-11-05T03:28:59.932Z,16.60
2022-11-05T03:29:59.926Z,14.00
2022-11-05T03:30:59.910Z,14.60
2022-11-05T03:31:59.909Z,15.00
2022-11-05T03:32:59.905Z,15.10
2022-11-05T03:33:59.894Z,14.50
2022-11-05T03:34:59.846Z,15.10
2022-11-05T03:35:59.839Z,15.10
2022-11-05T03:36:59.830Z,17.00
2022-11-05T03:37:59.848Z,18.20
2022-11-05T03:38:59.795Z,13.60
2022-11-05T03:39:59.793Z,16.40
2022-11-05T03:40:59.769Z,13.80
2022-11-05T03:41:59.774Z,13.30
2022-11-05T03:42:59.731Z,16.10
2022-11-05T03:43:59.755Z,13.10
2022-11-05T03:44:59.711Z,15.90
2022-11-05T03:45:59.715Z,18.00
2022-11-05T03:46:59.679Z,14.10
2022-11-05T03:47:59.700Z,15.30
2022-11-05T03:48:59.736Z,15.90
2022-11-05T03:49:59.653Z,16.70
2022-11-05T03:50:59.640Z,15.20
2022-11-05T03:51:59.627Z,13.70
2022-11-05T03:52:59.628Z,14.80
2022-11-05T03:53:59.615Z,15.30
2022-11-05T03:54:59.601Z,16.40
2022-11-05T03:55:59.570Z,13.60
2022-11-05T03:56:59.562Z,14.90
2022-11-05T03:57:59.546Z,13.60
2022-11-05T03:58:59.559Z,13.70
2022-11-05T03:59:59.514Z,13.80
2022-11-05T04:00:59.540Z,17.90
2022-11-05T04:01:59.615Z,18.40
2022-11-05T04:02:59.533Z,15.70
2022-11-05T04:03:59.492Z,14.80
2022-11-05T04:04:59.487Z,14.90
2022-11-05T04:05:59.447Z,16.00
2022-11-05T04:06:59.447Z,13.80
2022-11-05T04:07:59.413Z,16.00
2022-11-05T04:08:59.405Z,14.40
2022-11-05T04:09:59.383Z,13.60
2022-11-05T04:10:59.381Z,15.40
2022-11-05T04:11:59.383Z,16.20
2022-11-05T04:12:59.347Z,14.00
2022-11-05T04:13:59.341Z,15.60
2022-11-05T04:14:59.309Z,15.10
2022-11-05T04:15:59.313Z,18.80
2022-11-05T04:16:59.327Z,17.00
2022-11-05T04:17:59.270Z,16.00
2022-11-05T04:18:59.265Z,14.50
2022-11-05T04:19:59.256Z,14.70
2022-11-05T04:20:59.247Z,16.80
2022-11-05T04:21:59.233Z,15.20
2022-11-05T04:22:59.243Z,14.30
2022-11-05T04:23:59.203Z,14.10
2022-11-05T04:24:59.185Z,17.30
2022-11-05T04:25:59.169Z,12.30
2022-11-05T04:26:59.164Z,14.80
2022-11-05T04:27:59.164Z,15.80
2022-11-05T04:29:01.447Z,13.60
2022-11-05T04:29:59.147Z,14.20
2022-11-05T04:30:59.107Z,12.30
2022-11-05T04:31:59.161Z,14.30
2022-11-05T04:32:59.093Z,12.60
2022-11-05T04:33:59.074Z,16.30
2022-11-05T04:34:59.080Z,11.30
2022-11-05T04:35:59.045Z,15.50
2022-11-05T04:36:59.095Z,14.30
2022-11-05T04:37:59.008Z,13.60
2022-11-05T04:38:59.001Z,11.80
2022-11-05T04:39:59.006Z,12.80
2022-11-05T04:40:58.960Z,11.00
2022-11-05T04:41:58.983Z,14.90
2022-11-05T04:42:58.937Z,10.70
2022-11-05T04:43:58.933Z,12.00
2022-11-05T04:44:58.942Z,11.40
2022-11-05T04:45:58.911Z,11.80
2022-11-05T04:46:58.877Z,10.40
2022-11-05T04:47:58.878Z,9.20
2022-11-05T04:48:58.869Z,9.00
2022-11-05T04:49:58.889Z,9.90
2022-11-05T04:50:58.847Z,10.80
2022-11-05T04:51:58.828Z,10.60
2022-11-05T04:52:58.810Z,9.90
2022-11-05T04:53:58.825Z,8.80
2022-11-05T04:54:58.789Z,9.80
2022-11-05T04:55:58.785Z,9.20
2022-11-05T04:56:58.751Z,11.70
2022-11-05T04:57:58.766Z,8.60
2022-11-05T04:58:58.752Z,12.40
2022-11-05T04:59:58.734Z,12.40
2022-11-05T05:00:58.750Z,10.00
2022-11-05T05:01:58.771Z,9.80
2022-11-05T05:02:58.692Z,9.60
2022-11-05T05:03:58.664Z,10.90
2022-11-05T05:04:58.663Z,9.80
2022-11-05T05:06:03.547Z,9.40
2022-11-05T05:06:58.622Z,11.40
2022-11-05T05:07:58.640Z,13.20
2022-11-05T05:08:58.600Z,14.90
2022-11-05T05:09:58.613Z,13.30
2022-11-05T05:10:58.562Z,17.80
2022-11-05T05:11:58.572Z,25.50
2022-11-05T05:12:58.572Z,29.90
2022-11-05T05:13:58.562Z,24.40
2022-11-05T05:14:58.511Z,27.70
2022-11-05T05:15:58.498Z,16.20
2022-11-05T05:16:58.514Z,23.50
2022-11-05T05:17:58.480Z,30.00
2022-11-05T05:18:58.451Z,27.00
2022-11-05T05:19:58.439Z,34.90
2022-11-05T05:20:58.435Z,29.00
2022-11-05T05:21:58.414Z,31.90
2022-11-05T05:22:58.412Z,30.20
2022-11-05T05:23:58.417Z,27.50
2022-11-05T05:24:58.377Z,21.50
2022-11-05T05:25:58.372Z,17.80
2022-11-05T05:26:58.375Z,15.70
2022-11-05T05:27:58.340Z,12.80
2022-11-05T05:28:58.323Z,17.50
2022-11-05T05:29:58.325Z,11.40
2022-11-05T05:30:58.882Z,10.30
2022-11-05T05:31:58.315Z,8.00
2022-11-05T05:32:58.281Z,9.30
2022-11-05T05:33:58.262Z,9.50
2022-11-05T05:34:58.241Z,9.00
2022-11-05T05:35:58.257Z,9.50
2022-11-05T05:36:58.230Z,7.70
2022-11-05T05:37:58.218Z,7.30
2022-11-05T05:38:58.194Z,7.10
2022-11-05T05:39:58.277Z,8.20
2022-11-05T05:40:58.170Z,5.70
2022-11-05T05:41:58.158Z,5.60
2022-11-05T05:42:58.139Z,6.60
2022-11-05T05:43:58.131Z,6.00
2022-11-05T05:44:58.134Z,5.30
2022-11-05T05:45:58.099Z,5.90
2022-11-05T05:46:58.139Z,5.90
2022-11-05T05:47:58.090Z,7.50
2022-11-05T05:48:58.072Z,7.40
2022-11-05T05:49:58.071Z,6.80
2022-11-05T05:50:58.033Z,7.20
2022-11-05T05:51:58.033Z,5.80
2022-11-05T05:52:57.994Z,6.50
2022-11-05T05:53:58.016Z,6.10
2022-11-05T05:54:58.011Z,5.90
2022-11-05T05:55:57.966Z,6.10
2022-11-05T05:56:57.966Z,6.50
2022-11-05T05:57:57.973Z,7.30
2022-11-05T05:58:57.919Z,6.60
2022-11-05T05:59:57.910Z,6.40
2022-11-05T06:00:57.898Z,5.60
2022-11-05T06:01:58.032Z,8.50
2022-11-05T06:02:57.937Z,6.60
2022-11-05T06:03:57.868Z,5.30
2022-11-05T06:04:57.913Z,5.20
2022-11-05T06:05:57.834Z,5.70
2022-11-05T06:06:57.856Z,5.20
2022-11-05T06:07:57.794Z,8.10
2022-11-05T06:08:57.810Z,5.80
2022-11-05T06:09:57.780Z,5.40
2022-11-05T06:10:57.806Z,4.60
2022-11-05T06:11:57.794Z,5.50
2022-11-05T06:12:57.751Z,4.60
2022-11-05T06:13:57.768Z,8.00
2022-11-05T06:14:57.722Z,5.40
2022-11-05T06:15:57.693Z,6.90
2022-11-05T06:16:57.708Z,4.50
2022-11-05T06:17:57.799Z,6.00
2022-11-05T06:18:57.656Z,6.40
2022-11-05T06:19:57.642Z,6.30
2022-11-05T06:20:57.659Z,5.20
2022-11-05T06:21:57.618Z,5.20
2022-11-05T06:22:58.079Z,7.60
2022-11-05T06:23:57.599Z,7.00
2022-11-05T06:24:57.707Z,4.60
2022-11-05T06:25:57.563Z,7.50
2022-11-05T06:26:57.577Z,5.50
2022-11-05T06:27:57.544Z,5.80
2022-11-05T06:28:57.571Z,3.80
2022-11-05T06:29:57.515Z,6.00
2022-11-05T06:30:57.543Z,5.60
2022-11-05T06:31:57.478Z,6.30
2022-11-05T06:32:57.471Z,7.20
2022-11-05T06:33:57.484Z,5.10
2022-11-05T06:34:57.447Z,6.60
2022-11-05T06:35:57.435Z,5.90
2022-11-05T06:36:57.428Z,7.20
2022-11-05T06:37:57.424Z,6.80
2022-11-05T06:38:57.412Z,6.80
2022-11-05T06:39:57.381Z,6.70
2022-11-05T06:40:58.072Z,5.60
2022-11-05T06:42:17.454Z,6.40
2022-11-05T06:42:57.350Z,5.80
2022-11-05T06:43:57.321Z,6.10
2022-11-05T06:44:57.343Z,6.50
2022-11-05T06:45:57.311Z,6.30
2022-11-05T06:46:57.281Z,5.80
2022-11-05T06:47:57.268Z,5.20
2022-11-05T06:48:57.320Z,5.80
2022-11-05T06:49:57.249Z,5.20
2022-11-05T06:50:57.242Z,6.00
2022-11-05T06:51:57.215Z,6.20
2022-11-05T06:52:57.241Z,5.80
2022-11-05T06:53:57.200Z,5.50
2022-11-05T06:54:57.193Z,7.00
2022-11-05T06:55:57.175Z,5.90
2022-11-05T06:56:57.160Z,5.50
2022-11-05T06:57:57.141Z,6.10
2022-11-05T06:58:57.158Z,6.90
2022-11-05T07:00:01.390Z,5.80
2022-11-05T07:00:57.129Z,5.70
2022-11-05T07:01:57.164Z,6.10
2022-11-05T07:02:57.106Z,6.30
2022-11-05T07:03:57.101Z,6.10
2022-11-05T07:04:57.067Z,6.60
2022-11-05T07:05:57.049Z,6.20
2022-11-05T07:06:57.044Z,6.20
2022-11-05T07:07:57.013Z,4.20
2022-11-05T07:08:57.027Z,5.10
2022-11-05T07:09:56.975Z,5.50
2022-11-05T07:10:56.978Z,7.60
2022-11-05T07:11:56.952Z,5.30
2022-11-05T07:12:56.958Z,4.60
2022-11-05T07:13:56.925Z,4.20
2022-11-05T07:14:56.922Z,5.40
2022-11-05T07:15:56.901Z,4.90
2022-11-05T07:16:56.918Z,5.30
2022-11-05T07:17:56.878Z,5.80
2022-11-05T07:18:56.868Z,3.80
2022-11-05T07:19:56.855Z,6.20
2022-11-05T07:20:56.843Z,6.70
2022-11-05T07:21:56.836Z,5.70
2022-11-05T07:22:56.859Z,6.40
2022-11-05T07:23:56.783Z,7.10
2022-11-05T07:24:56.776Z,8.10
2022-11-05T07:25:56.764Z,8.00
2022-11-05T07:26:56.789Z,6.20
2022-11-05T07:27:56.786Z,5.30
2022-11-05T07:28:56.727Z,6.00
2022-11-05T07:29:56.710Z,4.60
2022-11-05T07:30:56.701Z,7.50
2022-11-05T07:31:56.731Z,6.40
2022-11-05T07:32:56.720Z,3.90
2022-11-05T07:33:56.655Z,5.50
2022-11-05T07:34:56.651Z,4.40
2022-11-05T07:35:56.649Z,7.60
2022-11-05T07:36:56.641Z,4.40
2022-11-05T07:37:56.638Z,5.20
2022-11-05T07:39:00.288Z,6.40
2022-11-05T07:39:56.607Z,7.30
2022-11-05T07:40:56.583Z,7.20
2022-11-05T07:41:56.575Z,6.80
2022-11-05T07:42:56.543Z,6.20
2022-11-05T07:43:56.591Z,5.80
2022-11-05T07:44:56.510Z,5.50
2022-11-05T07:45:56.513Z,8.90
2022-11-05T07:46:56.492Z,6.90
2022-11-05T07:47:56.475Z,6.60
2022-11-05T07:48:56.514Z,5.40
2022-11-05T07:49:56.446Z,15.10
2022-11-05T07:50:56.449Z,17.20
2022-11-05T07:51:56.448Z,11.90
2022-11-05T07:52:56.432Z,8.90
2022-11-05T07:53:56.423Z,10.60
2022-11-05T07:54:56.386Z,15.00
2022-11-05T07:55:56.369Z,15.40
2022-11-05T07:56:56.355Z,19.60
2022-11-05T07:57:56.346Z,68.60
2022-11-05T07:58:56.354Z,28.90
2022-11-05T07:59:56.313Z,12.90
2022-11-05T08:00:56.408Z,10.90
2022-11-05T08:01:56.491Z,10.60
2022-11-05T08:02:58.573Z,12.50
2022-11-05T08:03:56.267Z,11.40
2022-11-05T08:04:56.279Z,10.20
2022-11-05T08:05:56.234Z,13.30
2022-11-05T08:06:56.217Z,9.40
2022-11-05T08:07:56.208Z,11.70
2022-11-05T08:08:56.195Z,9.50
2022-11-05T08:09:56.197Z,9.90
2022-11-05T08:10:56.168Z,32.80
2022-11-05T08:12:01.449Z,15.60
2022-11-05T08:12:56.165Z,68.40
2022-11-05T08:13:56.135Z,7.40
2022-11-05T08:14:56.131Z,8.00
2022-11-05T08:15:56.118Z,6.10
2022-11-05T08:16:56.128Z,7.20
2022-11-05T08:17:56.071Z,8.80
2022-11-05T08:18:56.070Z,8.70
2022-11-05T08:19:56.043Z,8.20
2022-11-05T08:20:56.046Z,8.80
2022-11-05T08:21:56.046Z,7.60
2022-11-05T08:22:56.015Z,7.70
2022-11-05T08:23:56.041Z,7.50
2022-11-05T08:24:55.981Z,5.50
2022-11-05T08:25:55.996Z,5.00
2022-11-05T08:26:56.046Z,4.50
2022-11-05T08:27:55.960Z,4.30
2022-11-05T08:28:55.972Z,4.20
2022-11-05T08:29:55.960Z,3.40
2022-11-05T08:30:55.914Z,4.30
2022-11-05T08:31:55.882Z,6.40
2022-11-05T08:32:55.928Z,5.00
2022-11-05T08:34:01.302Z,4.30
2022-11-05T08:34:55.856Z,3.60
2022-11-05T08:35:55.848Z,4.40
2022-11-05T08:36:55.834Z,3.60
2022-11-05T08:37:55.798Z,3.90
2022-11-05T08:38:55.822Z,4.10
2022-11-05T08:39:55.816Z,5.50
2022-11-05T08:40:55.788Z,5.10
2022-11-05T08:41:55.753Z,6.80
2022-11-05T08:42:55.739Z,5.30
2022-11-05T08:43:55.743Z,4.80
2022-11-05T08:44:55.718Z,5.20
2022-11-05T08:45:55.724Z,5.00
2022-11-05T08:46:55.692Z,3.90
2022-11-05T08:47:55.665Z,3.70
2022-11-05T08:48:55.669Z,4.30
2022-11-05T08:49:55.654Z,5.40
2022-11-05T08:50:55.660Z,3.80
2022-11-05T08:51:56.053Z,5.60
2022-11-05T08:52:55.603Z,6.50
2022-11-05T08:53:55.613Z,6.20
2022-11-05T08:54:55.593Z,4.50
2022-11-05T08:55:55.563Z,18.70
2022-11-05T08:56:55.594Z,18.40
2022-11-05T08:57:55.533Z,7.70
2022-11-05T08:58:55.540Z,14.40
2022-11-05T08:59:55.563Z,10.10
2022-11-05T09:00:58.992Z,8.10
2022-11-05T09:01:55.684Z,3.80
2022-11-05T09:02:55.491Z,8.00
2022-11-05T09:03:55.464Z,5.90
2022-11-05T09:04:55.444Z,5.30
2022-11-05T09:05:55.455Z,5.70
2022-11-05T09:06:55.435Z,6.70
2022-11-05T09:08:01.019Z,5.60
2022-11-05T09:08:55.411Z,6.00
2022-11-05T09:09:55.409Z,5.50
2022-11-05T09:10:55.408Z,6.20
2022-11-05T09:12:11.817Z,6.50
2022-11-05T09:12:55.341Z,5.50
2022-11-05T09:13:55.352Z,6.10
2022-11-05T09:14:55.317Z,7.00
2022-11-05T09:15:55.319Z,6.80
2022-11-05T09:16:55.312Z,5.90
2022-11-05T09:17:55.259Z,6.60
2022-11-05T09:18:55.256Z,6.40
2022-11-05T09:19:55.242Z,8.20
2022-11-05T09:20:55.251Z,4.40
2022-11-05T09:21:55.246Z,5.40
2022-11-05T09:22:55.216Z,6.00
2022-11-05T09:23:55.193Z,4.70
2022-11-05T09:24:55.184Z,5.40
2022-11-05T09:25:55.168Z,7.20
2022-11-05T09:26:55.364Z,6.40
2022-11-05T09:27:55.131Z,7.50
2022-11-05T09:28:55.125Z,6.70
2022-11-05T09:29:55.109Z,6.20
2022-11-05T09:30:55.148Z,5.60
2022-11-05T09:31:55.095Z,5.80
2022-11-05T09:32:55.093Z,6.50
2022-11-05T09:33:55.067Z,5.10
2022-11-05T09:34:55.048Z,8.20
2022-11-05T09:35:55.026Z,6.20
2022-11-05T09:36:55.010Z,5.50
2022-11-05T09:38:00.619Z,5.60
2022-11-05T09:38:54.999Z,5.50
2022-11-05T09:39:54.984Z,6.40
2022-11-05T09:40:54.961Z,12.90
2022-11-05T09:41:54.991Z,5.20
2022-11-05T09:42:54.967Z,6.50
2022-11-05T09:43:54.921Z,8.00
2022-11-05T09:44:54.912Z,6.70
2022-11-05T09:45:54.899Z,5.50
2022-11-05T09:46:54.907Z,5.60
2022-11-05T09:47:54.905Z,4.70
2022-11-05T09:48:54.854Z,5.90
2022-11-05T09:49:54.839Z,5.00
2022-11-05T09:50:54.825Z,4.80
2022-11-05T09:51:54.821Z,5.40
2022-11-05T09:52:54.831Z,4.10
2022-11-05T09:53:54.783Z,5.50
2022-11-05T09:54:54.766Z,9.80
2022-11-05T09:55:54.783Z,7.20
2022-11-05T09:56:54.761Z,7.40
2022-11-05T09:57:54.733Z,11.40
2022-11-05T09:58:54.732Z,6.90
2022-11-05T09:59:54.722Z,6.80
2022-11-05T10:00:54.751Z,8.00
2022-11-05T10:01:54.840Z,6.80
2022-11-05T10:02:54.658Z,8.90
2022-11-05T10:03:54.671Z,6.00
2022-11-05T10:04:54.701Z,6.50
2022-11-05T10:05:54.651Z,7.10
2022-11-05T10:06:54.667Z,6.10
2022-11-05T10:07:54.602Z,6.40
2022-11-05T10:08:54.652Z,7.50
2022-11-05T10:09:54.581Z,8.50
2022-11-05T10:10:54.734Z,7.40
2022-11-05T10:11:54.535Z,7.50
2022-11-05T10:12:54.571Z,8.10
2022-11-05T10:13:54.513Z,6.60
2022-11-05T10:14:54.533Z,5.50
2022-11-05T10:15:54.541Z,9.10
2022-11-05T10:16:54.477Z,7.00
2022-11-05T10:17:54.446Z,6.20
2022-11-05T10:18:54.461Z,9.10
2022-11-05T10:19:54.472Z,6.60
2022-11-05T10:20:54.445Z,6.70
2022-11-05T10:22:09.660Z,8.30
2022-11-05T10:22:54.391Z,9.60
2022-11-05T10:23:54.380Z,9.70
2022-11-05T10:24:54.393Z,6.90
2022-11-05T10:25:54.382Z,9.00
2022-11-05T10:26:54.350Z,7.60
2022-11-05T10:27:54.331Z,9.20
2022-11-05T10:28:54.399Z,8.80
2022-11-05T10:29:54.317Z,8.30
2022-11-05T10:30:54.287Z,10.30
2022-11-05T10:31:54.281Z,8.00
2022-11-05T10:32:54.255Z,7.80
2022-11-05T10:33:54.266Z,10.30
2022-11-05T10:34:54.270Z,7.80
2022-11-05T10:35:54.264Z,7.00
2022-11-05T10:36:54.245Z,7.40
2022-11-05T10:37:54.250Z,8.30
2022-11-05T10:38:54.170Z,8.80
2022-11-05T10:39:54.199Z,5.10
2022-11-05T10:40:54.165Z,7.60
2022-11-05T10:41:54.137Z,7.30
2022-11-05T10:42:54.147Z,8.10
2022-11-05T10:43:54.137Z,7.90
2022-11-05T10:44:54.097Z,8.40
2022-11-05T10:45:54.106Z,6.60
2022-11-05T10:46:54.079Z,9.60
2022-11-05T10:47:54.156Z,9.30
2022-11-05T10:48:54.058Z,7.90
2022-11-05T10:49:54.049Z,8.60
2022-11-05T10:50:54.100Z,10.50
2022-11-05T10:51:54.010Z,8.60
2022-11-05T10:52:53.980Z,7.80
2022-11-05T10:53:58.844Z,8.50
2022-11-05T10:54:53.969Z,7.80
2022-11-05T10:55:53.976Z,8.80
2022-11-05T10:56:53.944Z,8.50
2022-11-05T10:57:53.938Z,6.70
2022-11-05T10:58:53.903Z,11.10
2022-11-05T10:59:53.912Z,6.30
2022-11-05T11:00:53.985Z,10.50
2022-11-05T11:01:54.024Z,8.10
2022-11-05T11:02:53.874Z,8.60
2022-11-05T11:03:53.861Z,8.60
2022-11-05T11:04:53.858Z,8.60
2022-11-05T11:05:53.853Z,7.90
2022-11-05T11:06:53.819Z,6.90
2022-11-05T11:07:53.804Z,7.80
2022-11-05T11:08:53.788Z,6.40
2022-11-05T11:09:53.803Z,8.70
2022-11-05T11:10:53.757Z,6.70
2022-11-05T11:11:53.764Z,9.30
2022-11-05T11:12:53.746Z,10.10
2022-11-05T11:13:53.768Z,7.90
2022-11-05T11:14:53.696Z,5.30
2022-11-05T11:15:53.680Z,6.30
2022-11-05T11:16:53.669Z,7.40
2022-11-05T11:17:53.690Z,10.00
2022-11-05T11:18:53.672Z,12.80
2022-11-05T11:19:53.731Z,9.30
2022-11-05T11:20:53.639Z,10.50
2022-11-05T11:21:53.640Z,7.00
2022-11-05T11:22:53.601Z,10.10
2022-11-05T11:23:53.596Z,5.20
2022-11-05T11:24:53.645Z,7.90
2022-11-05T11:25:53.590Z,9.80
2022-11-05T11:26:53.603Z,8.40
2022-11-05T11:27:53.570Z,8.10
2022-11-05T11:28:53.514Z,11.50
2022-11-05T11:29:53.509Z,8.10
2022-11-05T11:30:53.507Z,11.20
2022-11-05T11:31:53.486Z,7.90
2022-11-05T11:32:53.782Z,8.80
2022-11-05T11:33:53.786Z,7.90
2022-11-05T11:34:53.449Z,9.60
2022-11-05T11:35:53.451Z,10.70
2022-11-05T11:36:53.420Z,8.60
2022-11-05T11:37:53.370Z,11.00
2022-11-05T11:38:53.385Z,8.50
2022-11-05T11:39:53.388Z,12.20
2022-11-05T11:40:53.353Z,8.20
2022-11-05T11:41:53.321Z,9.70
2022-11-05T11:42:53.383Z,21.20
2022-11-05T11:43:53.298Z,13.20
2022-11-05T11:44:53.316Z,7.10
2022-11-05T11:45:53.299Z,10.60
2022-11-05T11:46:53.265Z,9.00
2022-11-05T11:47:53.233Z,13.70
2022-11-05T11:48:53.257Z,10.90
2022-11-05T11:49:53.240Z,10.20
2022-11-05T11:50:53.236Z,10.00
2022-11-05T11:51:53.195Z,8.40
2022-11-05T11:52:53.187Z,7.50
2022-11-05T11:53:53.171Z,10.50
2022-11-05T11:54:53.167Z,9.30
2022-11-05T11:55:53.223Z,8.60
2022-11-05T11:56:53.136Z,10.70
2022-11-05T11:57:53.173Z,9.20
2022-11-05T11:58:53.132Z,7.40
2022-11-05T12:00:09.624Z,5.60
2022-11-05T12:00:53.072Z,7.40
2022-11-05T12:01:53.267Z,6.30
2022-11-05T12:02:55.977Z,7.70
2022-11-05T12:03:53.047Z,10.10
2022-11-05T12:04:53.023Z,8.40
2022-11-05T12:05:53.008Z,9.50
2022-11-05T12:06:53.002Z,7.40
2022-11-05T12:07:53.110Z,9.90
2022-11-05T12:09:00.602Z,8.10
2022-11-05T12:09:52.977Z,6.60
2022-11-05T12:10:52.947Z,7.20
2022-11-05T12:11:52.910Z,6.40
2022-11-05T12:12:52.913Z,9.20
2022-11-05T12:13:52.891Z,6.20
2022-11-05T12:14:52.906Z,7.10
2022-11-05T12:15:52.879Z,6.80
2022-11-05T12:16:52.861Z,8.20
2022-11-05T12:17:52.884Z,6.80
2022-11-05T12:18:52.825Z,7.30
2022-11-05T12:19:52.836Z,7.50
2022-11-05T12:20:57.985Z,6.80
2022-11-05T12:21:53.575Z,7.90
2022-11-05T12:22:52.782Z,7.40
2022-11-05T12:23:52.760Z,8.90
2022-11-05T12:24:52.762Z,7.90
2022-11-05T12:25:52.735Z,9.40
2022-11-05T12:26:52.760Z,11.50
2022-11-05T12:27:52.731Z,7.30
2022-11-05T12:29:17.257Z,9.10
2022-11-05T12:29:52.699Z,6.30
2022-11-05T12:30:52.670Z,5.90
2022-11-05T12:31:52.675Z,7.30
2022-11-05T12:32:52.689Z,6.00
2022-11-05T12:33:52.647Z,7.80
2022-11-05T12:34:52.620Z,8.80
2022-11-05T12:35:57.607Z,9.70
2022-11-05T12:36:52.595Z,8.40
2022-11-05T12:37:52.604Z,6.80
2022-11-05T12:38:52.545Z,7.60
2022-11-05T12:39:52.543Z,8.40
2022-11-05T12:40:52.551Z,7.50
2022-11-05T12:41:52.513Z,8.60
2022-11-05T12:42:54.052Z,6.50
2022-11-05T12:43:52.553Z,8.10
2022-11-05T12:44:52.483Z,6.60
2022-11-05T12:45:52.458Z,8.30
2022-11-05T12:46:52.451Z,8.00
2022-11-05T12:47:52.482Z,4.60
2022-11-05T12:48:52.455Z,8.40
2022-11-05T12:49:52.433Z,6.80
2022-11-05T12:50:52.419Z,10.50
2022-11-05T12:51:52.382Z,9.30
2022-11-05T12:52:52.376Z,6.40
2022-11-05T12:53:52.345Z,7.70
2022-11-05T12:54:52.372Z,6.40
2022-11-05T12:55:52.335Z,6.90
2022-11-05T12:56:52.323Z,7.20
2022-11-05T12:57:52.330Z,5.80
2022-11-05T12:58:52.296Z,9.00
2022-11-05T12:59:52.269Z,8.60
2022-11-05T13:00:52.351Z,9.80
2022-11-05T13:01:52.381Z,7.20
2022-11-05T13:02:52.250Z,7.70
2022-11-05T13:03:52.226Z,7.20
2022-11-05T13:04:52.217Z,6.40
2022-11-05T13:05:52.189Z,9.20
2022-11-05T13:06:52.201Z,12.30
2022-11-05T13:07:52.176Z,7.30